createdAt,value
2018-07-20T00:00:10.224Z,58.04
2018-07-20T00:01:10.252Z,57.94
2018-07-20T00:02:10.461Z,58.52
2018-07-20T00:03:10.275Z,57.46
2018-07-20T00:04:10.296Z,57.75
2018-07-20T00:05:10.310Z,58.62
2018-07-20T00:06:10.325Z,58.14
2018-07-20T00:07:10.350Z,58.11
2018-07-20T00:08:10.413Z,58.30
2018-07-20T00:09:10.374Z,57.92
2018-07-20T00:10:10.398Z,58.49
2018-07-20T00:11:10.407Z,58.49
2018-07-20T00:12:10.424Z,58.40
2018-07-20T00:13:10.442Z,58.49
2018-07-20T00:14:10.460Z,57.34
2018-07-20T00:15:10.474Z,59.17
2018-07-20T00:16:10.491Z,58.30
2018-07-20T00:17:10.979Z,58.01
2018-07-20T00:18:10.540Z,57.72
2018-07-20T00:19:10.545Z,57.53
2018-07-20T00:20:10.556Z,58.49
2018-07-20T00:21:10.575Z,57.53
2018-07-20T00:22:10.650Z,57.62
2018-07-20T00:23:10.611Z,57.72
2018-07-20T00:24:10.627Z,57.34
2018-07-20T00:25:10.659Z,57.34
2018-07-20T00:26:10.811Z,57.72
2018-07-20T00:27:10.675Z,57.92
2018-07-20T00:28:10.732Z,57.34
2018-07-20T00:29:10.708Z,57.34
2018-07-20T00:30:10.722Z,57.53
2018-07-20T00:31:10.744Z,56.85
2018-07-20T00:32:10.759Z,57.05
2018-07-20T00:33:10.776Z,57.82
2018-07-20T00:34:10.793Z,57.72
2018-07-20T00:35:10.808Z,57.53
2018-07-20T00:36:10.823Z,57.82
2018-07-20T00:37:10.843Z,57.43
2018-07-20T00:38:10.856Z,56.85
2018-07-20T00:39:10.873Z,57.34
2018-07-20T00:40:10.888Z,57.72
2018-07-20T00:41:10.949Z,57.53
2018-07-20T00:42:10.922Z,57.34
2018-07-20T00:43:10.946Z,58.20
2018-07-20T00:44:10.969Z,57.43
2018-07-20T00:45:10.972Z,58.59
2018-07-20T00:46:10.989Z,57.53
2018-07-20T00:47:11.005Z,57.82
2018-07-20T00:48:11.023Z,57.34
2018-07-20T00:49:11.091Z,57.34
2018-07-20T00:51:11.463Z,57.72
2018-07-20T00:52:11.101Z,57.92
2018-07-20T00:53:11.105Z,59.07
2018-07-20T00:54:11.121Z,58.59
2018-07-20T00:55:11.140Z,57.69
2018-07-20T00:56:11.155Z,58.56
2018-07-20T00:57:11.171Z,58.59
2018-07-20T00:58:11.188Z,58.47
2018-07-20T00:59:11.236Z,58.47
2018-07-20T01:00:11.226Z,58.37
2018-07-20T01:01:11.257Z,58.56
2018-07-20T01:02:11.254Z,59.04
2018-07-20T01:03:11.275Z,59.23
2018-07-20T01:04:11.291Z,59.62
2018-07-20T01:05:11.304Z,59.20
2018-07-20T01:06:11.322Z,59.23
2018-07-20T01:07:11.337Z,60.65
2018-07-20T01:08:11.354Z,60.84
2018-07-20T01:09:11.370Z,60.75
2018-07-20T01:10:11.410Z,59.88
2018-07-20T01:11:11.403Z,59.88
2018-07-20T01:12:11.417Z,59.88
2018-07-20T01:13:11.435Z,60.36
2018-07-20T01:14:11.451Z,60.94
2018-07-20T01:15:11.468Z,60.65
2018-07-20T01:16:11.483Z,60.46
2018-07-20T01:17:11.510Z,60.75
2018-07-20T01:18:11.516Z,60.72
2018-07-20T01:19:11.788Z,60.75
2018-07-20T01:20:11.700Z,61.61
2018-07-20T01:21:11.715Z,60.91
2018-07-20T01:22:11.591Z,60.81
2018-07-20T01:23:11.627Z,61.49
2018-07-20T01:24:11.616Z,61.39
2018-07-20T01:25:11.659Z,61.49
2018-07-20T01:26:11.659Z,61.68
2018-07-20T01:27:11.666Z,61.97
2018-07-20T01:28:11.681Z,61.39
2018-07-20T01:29:11.696Z,61.39
2018-07-20T01:30:11.713Z,61.39
2018-07-20T01:31:11.732Z,61.77
2018-07-20T01:32:11.765Z,61.87
2018-07-20T01:33:11.765Z,62.06
2018-07-20T01:34:11.781Z,62.06
2018-07-20T01:35:11.796Z,62.45
2018-07-20T01:36:11.813Z,61.87
2018-07-20T01:37:11.827Z,62.83
2018-07-20T01:38:11.842Z,62.64
2018-07-20T01:39:11.860Z,62.74
2018-07-20T01:40:12.183Z,62.26
2018-07-20T01:41:11.891Z,62.93
2018-07-20T01:42:11.909Z,62.54
2018-07-20T01:43:11.926Z,62.74
2018-07-20T01:44:11.941Z,62.93
2018-07-20T01:45:11.958Z,62.74
2018-07-20T01:46:11.973Z,63.31
2018-07-20T01:47:11.991Z,63.12
2018-07-20T01:48:12.008Z,62.64
2018-07-20T01:49:12.022Z,62.64
2018-07-20T01:50:12.040Z,62.71
2018-07-20T01:51:12.056Z,62.64
2018-07-20T01:52:12.071Z,62.71
2018-07-20T01:53:12.086Z,63.48
2018-07-20T01:54:12.102Z,64.15
2018-07-20T01:55:12.123Z,62.90
2018-07-20T01:56:12.186Z,64.28
2018-07-20T01:58:12.168Z,62.99
2018-07-20T01:59:12.198Z,64.25
2018-07-20T02:00:12.206Z,63.28
2018-07-20T02:01:12.221Z,63.38
2018-07-20T02:02:12.238Z,64.15
2018-07-20T02:03:12.249Z,63.67
2018-07-20T02:04:12.315Z,64.34
2018-07-20T02:05:12.375Z,63.48
2018-07-20T02:06:12.414Z,63.86
2018-07-20T02:07:12.317Z,64.15
2018-07-20T02:08:12.329Z,64.15
2018-07-20T02:09:12.345Z,64.05
2018-07-20T02:10:12.365Z,63.95
2018-07-20T02:11:12.380Z,63.67
2018-07-20T02:12:12.394Z,64.25
2018-07-20T02:13:12.412Z,63.76
2018-07-20T02:14:12.429Z,64.82
2018-07-20T02:15:12.458Z,64.53
2018-07-20T02:16:12.463Z,64.53
2018-07-20T02:17:12.476Z,63.95
2018-07-20T02:18:12.490Z,64.92
2018-07-20T02:19:12.509Z,64.53
2018-07-20T02:20:12.528Z,64.63
2018-07-20T02:21:12.550Z,63.38
2018-07-20T02:22:12.565Z,64.73
2018-07-20T02:23:12.576Z,65.20
2018-07-20T02:24:12.622Z,64.34
2018-07-20T02:25:12.604Z,64.43
2018-07-20T02:26:12.622Z,65.59
2018-07-20T02:27:12.636Z,64.82
2018-07-20T02:28:12.653Z,65.30
2018-07-20T02:29:12.668Z,65.20
2018-07-20T02:30:12.687Z,65.88
2018-07-20T02:31:12.704Z,64.05
2018-07-20T02:33:12.734Z,64.82
2018-07-20T02:34:12.768Z,64.53
2018-07-20T02:35:12.772Z,64.82
2018-07-20T02:36:12.793Z,65.50
2018-07-20T02:37:12.799Z,65.59
2018-07-20T02:38:12.817Z,65.27
2018-07-20T02:39:12.951Z,65.37
2018-07-20T02:40:12.861Z,65.40
2018-07-20T02:41:12.877Z,65.94
2018-07-20T02:42:12.882Z,65.88
2018-07-20T02:43:12.901Z,66.17
2018-07-20T02:44:12.913Z,65.40
2018-07-20T02:45:12.928Z,65.88
2018-07-20T02:46:12.975Z,65.01
2018-07-20T02:47:12.962Z,65.20
2018-07-20T02:48:12.978Z,65.20
2018-07-20T02:49:12.992Z,64.92
2018-07-20T02:50:13.016Z,66.52
2018-07-20T02:51:13.024Z,65.66
2018-07-20T02:52:13.040Z,65.17
2018-07-20T02:53:13.057Z,65.75
2018-07-20T02:54:13.078Z,65.84
2018-07-20T02:55:13.093Z,65.40
2018-07-20T02:56:13.106Z,66.42
2018-07-20T02:57:13.141Z,65.56
2018-07-20T02:58:13.139Z,66.14
2018-07-20T02:59:13.153Z,66.42
2018-07-20T03:00:13.168Z,65.75
2018-07-20T03:01:13.186Z,65.75
2018-07-20T03:02:13.202Z,66.27
2018-07-20T03:03:13.232Z,66.42
2018-07-20T03:04:13.235Z,66.71
2018-07-20T03:05:13.251Z,66.61
2018-07-20T03:06:13.265Z,66.61
2018-07-20T03:07:13.358Z,65.50
2018-07-20T03:08:13.306Z,65.88
2018-07-20T03:09:13.345Z,66.74
2018-07-20T03:10:13.332Z,65.88
2018-07-20T03:11:13.660Z,65.50
2018-07-20T03:12:13.406Z,65.01
2018-07-20T03:13:13.384Z,65.30
2018-07-20T03:14:13.410Z,64.89
2018-07-20T03:15:13.412Z,65.75
2018-07-20T03:16:13.426Z,65.56
2018-07-20T03:17:13.444Z,65.94
2018-07-20T03:18:13.504Z,65.46
2018-07-20T03:19:13.476Z,65.94
2018-07-20T03:20:13.494Z,67.00
2018-07-20T03:21:13.512Z,66.33
2018-07-20T03:22:13.525Z,67.29
2018-07-20T03:23:13.553Z,67.29
2018-07-20T03:24:13.558Z,67.38
2018-07-20T03:25:13.576Z,67.96
2018-07-20T03:26:13.590Z,67.68
2018-07-20T03:27:13.610Z,67.29
2018-07-20T03:28:13.620Z,67.38
2018-07-20T03:29:13.639Z,66.91
2018-07-20T03:30:13.653Z,67.00
2018-07-20T03:31:13.671Z,67.29
2018-07-20T03:32:13.694Z,66.91
2018-07-20T03:33:13.701Z,67.10
2018-07-20T03:34:13.718Z,67.86
2018-07-20T03:35:13.735Z,67.96
2018-07-20T03:36:13.748Z,67.68
2018-07-20T03:37:13.764Z,68.06
2018-07-20T03:38:13.835Z,68.35
2018-07-20T03:39:13.798Z,66.91
2018-07-20T03:40:13.931Z,67.48
2018-07-20T03:41:13.853Z,67.10
2018-07-20T03:42:14.201Z,68.06
2018-07-20T03:43:13.862Z,67.38
2018-07-20T03:44:13.928Z,68.25
2018-07-20T03:45:13.892Z,67.96
2018-07-20T03:46:14.127Z,67.77
2018-07-20T03:47:13.929Z,67.00
2018-07-20T03:48:13.940Z,66.91
2018-07-20T03:49:13.959Z,68.06
2018-07-20T03:50:13.975Z,67.86
2018-07-20T03:51:14.001Z,68.35
2018-07-20T03:52:14.145Z,67.86
2018-07-20T03:53:14.022Z,67.64
2018-07-20T03:54:14.045Z,67.45
2018-07-20T03:55:14.057Z,68.02
2018-07-20T03:56:14.075Z,68.35
2018-07-20T03:57:14.088Z,67.96
2018-07-20T03:58:14.106Z,68.06
2018-07-20T03:59:14.120Z,67.86
2018-07-20T04:00:14.140Z,68.06
2018-07-20T04:01:14.149Z,68.83
2018-07-20T04:02:14.166Z,68.54
2018-07-20T04:03:14.183Z,67.86
2018-07-20T04:04:14.199Z,67.93
2018-07-20T04:05:14.225Z,68.41
2018-07-20T04:06:14.230Z,68.41
2018-07-20T04:07:14.249Z,67.93
2018-07-20T04:08:14.262Z,68.89
2018-07-20T04:09:14.279Z,68.51
2018-07-20T04:10:14.325Z,68.51
2018-07-20T04:11:14.311Z,68.12
2018-07-20T04:12:14.330Z,69.85
2018-07-20T04:13:14.344Z,69.08
2018-07-20T04:14:14.366Z,69.37
2018-07-20T04:15:14.376Z,69.46
2018-07-20T04:16:14.395Z,69.46
2018-07-20T04:17:14.422Z,69.56
2018-07-20T04:18:14.422Z,69.37
2018-07-20T04:19:14.449Z,69.27
2018-07-20T04:20:14.456Z,69.56
2018-07-20T04:21:14.469Z,69.85
2018-07-20T04:22:14.489Z,69.46
2018-07-20T04:23:14.503Z,69.66
2018-07-20T04:24:14.517Z,69.18
2018-07-20T04:25:14.535Z,69.08
2018-07-20T04:26:14.551Z,68.41
2018-07-20T04:27:14.565Z,68.89
2018-07-20T04:28:14.581Z,68.31
2018-07-20T04:29:14.622Z,69.37
2018-07-20T04:30:14.673Z,69.27
2018-07-20T04:31:14.629Z,69.46
2018-07-20T04:32:14.646Z,69.46
2018-07-20T04:33:14.664Z,69.18
2018-07-20T04:34:14.677Z,69.56
2018-07-20T04:35:14.693Z,68.79
2018-07-20T04:36:14.748Z,68.89
2018-07-20T04:37:14.732Z,68.89
2018-07-20T04:38:14.743Z,68.79
2018-07-20T04:39:14.798Z,69.08
2018-07-20T04:40:14.780Z,68.79
2018-07-20T04:41:14.789Z,68.41
2018-07-20T04:42:14.810Z,69.95
2018-07-20T04:43:14.825Z,69.85
2018-07-20T04:44:15.044Z,69.66
2018-07-20T04:45:14.856Z,69.46
2018-07-20T04:46:14.875Z,69.85
2018-07-20T04:47:14.900Z,70.14
2018-07-20T04:48:14.951Z,70.23
2018-07-20T04:49:14.918Z,70.04
2018-07-20T04:50:14.949Z,71.29
2018-07-20T04:51:14.969Z,70.23
2018-07-20T04:52:14.977Z,70.62
2018-07-20T04:53:14.984Z,70.33
2018-07-20T04:54:14.997Z,70.43
2018-07-20T04:55:15.019Z,70.52
2018-07-20T04:56:15.032Z,70.90
2018-07-20T04:57:15.048Z,70.33
2018-07-20T04:58:15.063Z,70.33
2018-07-20T04:59:15.087Z,69.66
2018-07-20T05:00:15.095Z,69.46
2018-07-20T05:01:15.110Z,70.62
2018-07-20T05:02:15.125Z,71.48
2018-07-20T05:03:15.140Z,69.75
2018-07-20T05:04:15.173Z,69.18
2018-07-20T05:05:15.177Z,69.08
2018-07-20T05:06:15.192Z,70.23
2018-07-20T05:07:15.205Z,69.66
2018-07-20T05:08:15.220Z,69.08
2018-07-20T05:09:15.241Z,69.56
2018-07-20T05:10:15.253Z,69.95
2018-07-20T05:11:15.274Z,70.04
2018-07-20T05:12:15.345Z,70.23
2018-07-20T05:13:15.663Z,70.04
2018-07-20T05:14:15.318Z,70.23
2018-07-20T05:15:15.333Z,70.07
2018-07-20T05:16:15.500Z,68.92
2018-07-20T05:17:15.363Z,67.96
2018-07-20T05:18:16.291Z,68.92
2018-07-20T05:19:15.560Z,68.92
2018-07-20T05:20:15.429Z,68.44
2018-07-20T05:21:15.441Z,68.35
2018-07-20T05:22:15.448Z,70.07
2018-07-20T05:23:15.873Z,70.27
2018-07-20T05:24:15.592Z,68.83
2018-07-20T05:26:15.662Z,70.27
2018-07-20T05:27:15.526Z,69.50
2018-07-20T05:28:15.540Z,70.27
2018-07-20T05:29:15.659Z,69.12
2018-07-20T05:30:15.576Z,69.21
2018-07-20T05:31:15.651Z,70.46
2018-07-20T05:32:15.606Z,69.89
2018-07-20T05:33:15.631Z,68.83
2018-07-20T05:34:15.639Z,69.21
2018-07-20T05:35:15.656Z,69.31
2018-07-20T05:36:15.692Z,69.02
2018-07-20T05:37:15.686Z,70.17
2018-07-20T05:38:15.805Z,69.50
2018-07-20T05:39:15.717Z,70.46
2018-07-20T05:40:15.737Z,69.31
2018-07-20T05:41:15.781Z,70.27
2018-07-20T05:42:15.768Z,70.37
2018-07-20T05:43:15.797Z,70.07
2018-07-20T05:44:15.884Z,69.79
2018-07-20T05:45:15.814Z,68.73
2018-07-20T05:46:15.828Z,69.31
2018-07-20T05:47:15.846Z,69.98
2018-07-20T05:48:15.861Z,69.12
2018-07-20T05:49:15.914Z,69.12
2018-07-20T05:50:15.946Z,69.53
2018-07-20T05:51:15.909Z,69.40
2018-07-20T05:52:15.926Z,69.15
2018-07-20T05:53:15.943Z,68.57
2018-07-20T05:54:15.960Z,68.86
2018-07-20T05:55:15.998Z,68.29
2018-07-20T05:56:16.005Z,68.86
2018-07-20T05:57:16.010Z,68.76
2018-07-20T05:58:16.035Z,68.38
2018-07-20T05:59:16.038Z,68.09
2018-07-20T06:00:16.054Z,69.15
2018-07-20T06:01:18.030Z,68.29
2018-07-20T06:02:16.087Z,70.98
2018-07-20T06:03:16.105Z,69.15
2018-07-20T06:04:16.118Z,71.36
2018-07-20T06:05:16.239Z,69.63
2018-07-20T06:06:16.151Z,72.90
2018-07-20T06:07:16.184Z,73.28
2018-07-20T06:08:16.193Z,73.28
2018-07-20T06:09:16.198Z,70.40
2018-07-20T06:10:16.209Z,68.19
2018-07-20T06:11:16.225Z,70.68
2018-07-20T06:12:16.240Z,69.67
2018-07-20T06:13:16.257Z,68.76
2018-07-20T06:14:16.645Z,67.16
2018-07-20T06:15:16.289Z,68.22
2018-07-20T06:16:16.334Z,67.93
2018-07-20T06:17:16.321Z,66.49
2018-07-20T06:18:16.341Z,67.35
2018-07-20T06:19:16.401Z,73.32
2018-07-20T06:20:17.668Z,69.47
2018-07-20T06:21:16.389Z,66.78
2018-07-20T06:22:16.440Z,67.35
2018-07-20T06:23:16.445Z,68.32
2018-07-20T06:24:16.809Z,67.93
2018-07-20T06:25:16.463Z,67.74
2018-07-20T06:26:16.696Z,67.83
2018-07-20T06:27:17.318Z,65.91
2018-07-20T06:28:16.528Z,65.81
2018-07-20T06:29:16.555Z,65.81
2018-07-20T06:30:16.547Z,68.99
2018-07-20T06:31:16.548Z,68.80
2018-07-20T06:32:16.565Z,68.13
2018-07-20T06:33:16.643Z,68.44
2018-07-20T06:34:16.623Z,67.10
2018-07-20T06:35:16.614Z,66.04
2018-07-20T06:36:16.628Z,67.19
2018-07-20T06:37:16.650Z,69.22
2018-07-20T06:38:17.975Z,68.26
2018-07-20T06:39:16.695Z,66.24
2018-07-20T06:40:16.778Z,67.29
2018-07-20T06:41:16.710Z,69.02
2018-07-20T06:42:16.732Z,70.47
2018-07-20T06:43:16.815Z,68.26
2018-07-20T06:44:16.758Z,67.97
2018-07-20T06:45:16.905Z,68.64
2018-07-20T06:46:16.833Z,66.91
2018-07-20T06:47:16.809Z,67.39
2018-07-20T06:48:16.906Z,67.97
2018-07-20T06:49:16.843Z,68.44
2018-07-20T06:51:16.883Z,68.26
2018-07-20T06:52:16.925Z,68.64
2018-07-20T06:53:16.907Z,67.68
2018-07-20T06:54:16.938Z,67.87
2018-07-20T06:55:16.941Z,67.33
2018-07-20T06:56:16.955Z,67.71
2018-07-20T06:57:16.972Z,67.71
2018-07-20T06:58:16.987Z,67.23
2018-07-20T06:59:17.007Z,68.58
2018-07-20T07:00:17.073Z,68.29
2018-07-20T07:01:17.036Z,67.42
2018-07-20T07:02:17.076Z,66.75
2018-07-20T07:03:17.146Z,66.07
2018-07-20T07:04:17.100Z,67.23
2018-07-20T07:05:17.101Z,66.75
2018-07-20T07:06:17.120Z,67.13
2018-07-20T07:07:17.149Z,67.71
2018-07-20T07:08:17.152Z,67.23
2018-07-20T07:09:17.216Z,67.52
2018-07-20T07:10:17.285Z,67.23
2018-07-20T07:11:17.211Z,67.36
2018-07-20T07:12:17.216Z,66.27
2018-07-20T07:13:17.233Z,67.16
2018-07-20T07:14:17.262Z,66.01
2018-07-20T07:15:17.312Z,66.11
2018-07-20T07:16:17.286Z,66.30
2018-07-20T07:17:17.300Z,66.01
2018-07-20T07:18:17.315Z,65.14
2018-07-20T07:19:17.331Z,66.59
2018-07-20T07:20:17.497Z,66.14
2018-07-20T07:21:17.365Z,65.66
2018-07-20T07:22:17.409Z,65.75
2018-07-20T07:23:17.399Z,63.92
2018-07-20T07:24:17.508Z,64.89
2018-07-20T07:25:17.432Z,65.75
2018-07-20T07:26:17.449Z,64.59
2018-07-20T07:27:17.745Z,64.69
2018-07-20T07:28:17.481Z,64.79
2018-07-20T07:29:17.506Z,64.79
2018-07-20T07:30:17.514Z,64.82
2018-07-20T07:31:17.535Z,65.17
2018-07-20T07:32:17.549Z,64.31
2018-07-20T07:33:17.562Z,63.95
2018-07-20T07:34:17.591Z,64.05
2018-07-20T07:35:17.597Z,64.92
2018-07-20T07:36:17.676Z,63.67
2018-07-20T07:37:17.629Z,63.21
2018-07-20T07:38:17.659Z,64.56
2018-07-20T07:39:17.688Z,62.63
2018-07-20T07:40:17.680Z,64.37
2018-07-20T07:41:17.705Z,64.28
2018-07-20T07:42:17.893Z,64.18
2018-07-20T07:43:17.762Z,62.63
2018-07-20T07:44:18.659Z,62.73
2018-07-20T07:45:17.765Z,62.25
2018-07-20T07:46:17.782Z,62.25
2018-07-20T07:47:17.806Z,61.77
2018-07-20T07:48:17.811Z,62.34
2018-07-20T07:49:17.938Z,61.77
2018-07-20T07:50:17.979Z,62.05
2018-07-20T07:51:17.867Z,61.67
2018-07-20T07:52:17.879Z,62.44
2018-07-20T07:53:17.895Z,62.05
2018-07-20T07:54:17.912Z,61.19
2018-07-20T07:55:17.957Z,61.38
2018-07-20T07:56:17.951Z,61.86
2018-07-20T07:57:17.964Z,61.19
2018-07-20T07:58:17.980Z,60.61
2018-07-20T07:59:17.998Z,60.80
2018-07-20T08:00:18.016Z,60.35
2018-07-20T08:01:18.029Z,60.44
2018-07-20T08:02:18.051Z,59.09
2018-07-20T08:03:18.069Z,59.19
2018-07-20T08:04:18.079Z,58.93
2018-07-20T08:05:18.124Z,58.83
2018-07-20T08:06:18.127Z,60.09
2018-07-20T08:07:18.138Z,59.89
2018-07-20T08:08:18.148Z,58.64
2018-07-20T08:09:18.169Z,57.96
2018-07-20T08:10:18.202Z,58.64
2018-07-20T08:11:18.209Z,59.12
2018-07-20T08:12:18.224Z,59.41
2018-07-20T08:14:18.248Z,58.64
2018-07-20T08:15:18.272Z,59.31
2018-07-20T08:16:18.286Z,58.25
2018-07-20T08:17:18.299Z,58.73
2018-07-20T08:18:18.319Z,57.77
2018-07-20T08:19:18.334Z,58.15
2018-07-20T08:20:18.358Z,57.87
2018-07-20T08:21:18.368Z,58.86
2018-07-20T08:22:18.403Z,58.28
2018-07-20T08:23:18.403Z,58.57
2018-07-20T08:24:18.712Z,57.79
2018-07-20T08:25:18.759Z,58.09
2018-07-20T08:26:18.684Z,57.89
2018-07-20T08:27:18.481Z,57.67
2018-07-20T08:28:18.485Z,57.41
2018-07-20T08:29:18.503Z,56.93
2018-07-20T08:30:18.521Z,55.79
2018-07-20T08:31:18.537Z,55.79
2018-07-20T08:32:18.706Z,56.28
2018-07-20T08:33:18.571Z,55.15
2018-07-20T08:34:18.721Z,54.95
2018-07-20T08:35:19.275Z,53.79
2018-07-20T08:36:19.502Z,53.41
2018-07-20T08:37:18.824Z,54.27
2018-07-20T08:39:18.675Z,54.59
2018-07-20T08:40:18.692Z,55.15
2018-07-20T08:41:18.772Z,55.15
2018-07-20T08:42:18.728Z,55.15
2018-07-20T08:43:18.820Z,55.73
2018-07-20T08:44:18.789Z,55.24
2018-07-20T08:45:18.822Z,54.37
2018-07-20T08:46:18.807Z,54.39
2018-07-20T08:47:18.840Z,53.72
2018-07-20T08:48:20.318Z,53.63
2018-07-20T08:49:18.863Z,53.65
2018-07-20T08:50:18.869Z,52.78
2018-07-20T08:51:18.885Z,52.97
2018-07-20T08:52:18.903Z,53.17
2018-07-20T08:53:18.921Z,53.55
2018-07-20T08:54:18.977Z,53.65
2018-07-20T08:55:18.957Z,52.00
2018-07-20T08:56:18.974Z,52.87
2018-07-20T08:57:18.992Z,52.29
2018-07-20T08:58:19.014Z,51.62
2018-07-20T08:59:19.029Z,51.16
2018-07-20T09:00:19.046Z,51.16
2018-07-20T09:01:19.069Z,50.87
2018-07-20T09:02:19.082Z,50.38
2018-07-20T09:03:19.095Z,48.83
2018-07-20T09:04:19.115Z,49.15
2018-07-20T09:05:19.142Z,49.90
2018-07-20T09:06:19.260Z,48.93
2018-07-20T09:07:19.172Z,48.83
2018-07-20T09:08:19.188Z,48.74
2018-07-20T09:09:19.252Z,49.02
2018-07-20T09:10:19.223Z,50.02
2018-07-20T09:11:19.241Z,48.76
2018-07-20T09:12:19.260Z,49.12
2018-07-20T09:13:19.277Z,49.24
2018-07-20T09:14:19.295Z,48.44
2018-07-20T09:15:19.319Z,48.37
2018-07-20T09:16:19.345Z,48.27
2018-07-20T09:17:19.353Z,48.35
2018-07-20T09:18:19.753Z,49.80
2018-07-20T09:19:19.517Z,49.12
2018-07-20T09:20:19.899Z,49.63
2018-07-20T09:21:19.466Z,49.24
2018-07-20T09:22:19.456Z,49.24
2018-07-20T09:23:19.455Z,48.18
2018-07-20T09:24:19.475Z,48.59
2018-07-20T09:25:19.494Z,48.10
2018-07-20T09:27:19.834Z,47.62
2018-07-20T09:28:19.871Z,47.91
2018-07-20T09:29:19.567Z,47.13
2018-07-20T09:30:19.590Z,46.75
2018-07-20T09:31:19.602Z,47.33
2018-07-20T09:32:19.619Z,46.16
2018-07-20T09:33:19.638Z,46.55
2018-07-20T09:34:19.672Z,46.65
2018-07-20T09:35:19.675Z,46.58
2018-07-20T09:36:19.689Z,46.28
2018-07-20T09:37:19.715Z,46.38
2018-07-20T09:38:19.727Z,45.89
2018-07-20T09:39:19.746Z,46.19
2018-07-20T09:40:19.766Z,46.48
2018-07-20T09:41:19.787Z,45.12
2018-07-20T09:42:19.804Z,45.24
2018-07-20T09:43:19.822Z,45.53
2018-07-20T09:44:19.847Z,45.62
2018-07-20T09:45:19.857Z,44.64
2018-07-20T09:46:19.876Z,44.95
2018-07-20T09:47:19.894Z,45.04
2018-07-20T09:48:19.909Z,44.85
2018-07-20T09:49:19.940Z,45.24
2018-07-20T09:50:19.951Z,46.11
2018-07-20T09:51:19.971Z,45.07
2018-07-20T09:52:20.006Z,45.65
2018-07-20T09:53:20.008Z,44.97
2018-07-20T09:54:20.025Z,44.78
2018-07-20T09:55:20.050Z,44.19
2018-07-20T09:56:20.057Z,44.78
2018-07-20T09:57:20.082Z,44.78
2018-07-20T09:58:20.117Z,44.87
2018-07-20T09:59:20.122Z,44.68
2018-07-20T10:00:20.145Z,44.19
2018-07-20T10:02:20.168Z,44.78
2018-07-20T10:03:20.187Z,43.90
2018-07-20T10:04:20.235Z,44.19
2018-07-20T10:05:20.429Z,44.00
2018-07-20T10:06:20.249Z,44.00
2018-07-20T10:07:20.264Z,44.09
2018-07-20T10:08:20.730Z,43.71
2018-07-20T10:09:20.301Z,43.61
2018-07-20T10:10:20.319Z,44.87
2018-07-20T10:11:20.341Z,45.55
2018-07-20T10:12:20.358Z,44.97
2018-07-20T10:13:20.383Z,44.37
2018-07-20T10:14:20.397Z,45.24
2018-07-20T10:15:20.429Z,45.45
2018-07-20T10:16:20.447Z,43.80
2018-07-20T10:17:20.452Z,42.15
2018-07-20T10:18:20.471Z,42.36
2018-07-20T10:19:20.496Z,43.24
2018-07-20T10:20:20.509Z,43.82
2018-07-20T10:21:20.560Z,42.27
2018-07-20T10:22:20.549Z,41.96
2018-07-20T10:23:20.611Z,42.93
2018-07-20T10:24:20.582Z,43.61
2018-07-20T10:25:20.608Z,42.95
2018-07-20T10:26:21.107Z,42.66
2018-07-20T10:27:20.662Z,42.18
2018-07-20T10:28:20.683Z,42.76
2018-07-20T10:29:20.677Z,43.26
2018-07-20T10:30:20.906Z,42.76
2018-07-20T10:31:20.722Z,43.34
2018-07-20T10:32:20.736Z,42.95
2018-07-20T10:33:20.757Z,44.12
2018-07-20T10:34:20.772Z,43.34
2018-07-20T10:35:21.344Z,43.46
2018-07-20T10:36:20.911Z,43.55
2018-07-20T10:37:20.838Z,42.49
2018-07-20T10:38:20.867Z,43.07
2018-07-20T10:39:20.867Z,42.58
2018-07-20T10:40:20.890Z,42.87
2018-07-20T10:41:20.906Z,42.58
2018-07-20T10:42:20.928Z,42.68
2018-07-20T10:43:20.951Z,43.07
2018-07-20T10:44:20.955Z,42.58
2018-07-20T10:45:20.974Z,42.60
2018-07-20T10:46:20.996Z,42.31
2018-07-20T10:47:21.016Z,43.38
2018-07-20T10:48:21.034Z,42.99
2018-07-20T10:49:21.055Z,42.60
2018-07-20T10:50:21.072Z,42.60
2018-07-20T10:51:21.101Z,42.70
2018-07-20T10:52:21.110Z,42.31
2018-07-20T10:53:21.134Z,41.36
2018-07-20T10:54:21.148Z,41.75
2018-07-20T10:55:21.171Z,40.29
2018-07-20T10:56:24.279Z,41.16
2018-07-20T10:57:21.513Z,42.21
2018-07-20T10:58:21.225Z,40.37
2018-07-20T10:59:21.255Z,41.05
2018-07-20T11:01:21.348Z,40.08
2018-07-20T11:02:21.308Z,40.08
2018-07-20T11:03:21.322Z,40.56
2018-07-20T11:04:21.370Z,39.88
2018-07-20T11:05:21.364Z,42.21
2018-07-20T11:06:21.380Z,40.44
2018-07-20T11:07:21.399Z,40.44
2018-07-20T11:08:21.416Z,42.11
2018-07-20T11:09:21.436Z,40.44
2018-07-20T11:10:21.507Z,40.34
2018-07-20T11:11:21.482Z,40.37
2018-07-20T11:12:21.494Z,39.98
2018-07-20T11:13:21.512Z,40.08
2018-07-20T11:14:21.533Z,39.98
2018-07-20T11:15:21.551Z,41.36
2018-07-20T11:16:21.569Z,39.41
2018-07-20T11:17:21.589Z,39.12
2018-07-20T11:18:21.609Z,40.39
2018-07-20T11:19:21.627Z,39.41
2018-07-20T11:20:21.678Z,39.24
2018-07-20T11:21:21.669Z,39.22
2018-07-20T11:22:21.692Z,38.95
2018-07-20T11:23:21.704Z,38.75
2018-07-20T11:24:21.726Z,40.01
2018-07-20T11:25:21.757Z,39.94
2018-07-20T11:28:21.842Z,39.26
2018-07-20T11:29:21.848Z,39.45
2018-07-20T11:30:21.842Z,40.42
2018-07-20T11:31:21.876Z,38.38
2018-07-20T11:32:21.881Z,38.59
2018-07-20T11:33:21.906Z,39.18
2018-07-20T11:34:21.923Z,38.69
2018-07-20T11:35:21.945Z,37.23
2018-07-20T11:36:21.961Z,37.21
2018-07-20T11:37:21.994Z,37.41
2018-07-20T11:38:22.002Z,36.72
2018-07-20T11:39:22.022Z,37.31
2018-07-20T11:40:22.039Z,37.89
2018-07-20T11:41:22.060Z,37.60
2018-07-20T11:42:22.083Z,37.60
2018-07-20T11:43:22.101Z,37.89
2018-07-20T11:44:22.130Z,37.50
2018-07-20T11:45:22.151Z,37.41
2018-07-20T11:46:22.159Z,38.26
2018-07-20T11:47:22.181Z,38.64
2018-07-20T11:48:22.214Z,38.24
2018-07-20T11:49:22.223Z,39.41
2018-07-20T11:50:22.240Z,40.11
2018-07-20T11:51:22.259Z,38.95
2018-07-20T11:52:22.280Z,39.24
2018-07-20T11:53:22.300Z,38.07
2018-07-20T11:54:22.323Z,38.54
2018-07-20T11:55:22.347Z,38.65
2018-07-20T11:56:22.359Z,39.04
2018-07-20T11:57:22.385Z,38.07
2018-07-20T11:58:22.400Z,37.39
2018-07-20T11:59:22.435Z,37.31
2018-07-20T12:00:22.450Z,37.41
2018-07-20T12:01:22.466Z,36.71
2018-07-20T12:02:22.480Z,37.29
2018-07-20T12:03:22.499Z,38.07
2018-07-20T12:04:22.519Z,37.21
2018-07-20T12:05:22.540Z,37.60
2018-07-20T12:06:22.560Z,38.67
2018-07-20T12:07:22.585Z,37.41
2018-07-20T12:08:22.602Z,37.12
2018-07-20T12:09:22.627Z,37.99
2018-07-20T12:10:22.647Z,37.50
2018-07-20T12:11:22.663Z,36.92
2018-07-20T12:12:22.683Z,37.41
2018-07-20T12:13:22.707Z,37.79
2018-07-20T12:14:22.726Z,38.09
2018-07-20T12:15:22.743Z,38.38
2018-07-20T12:16:22.771Z,37.99
2018-07-20T12:17:22.784Z,38.09
2018-07-20T12:18:22.802Z,36.82
2018-07-20T12:19:22.854Z,39.65
2018-07-20T12:20:22.846Z,37.50
2018-07-20T12:21:22.862Z,38.30
2018-07-20T12:22:22.883Z,39.67
2018-07-20T12:23:22.904Z,40.16
2018-07-20T12:24:22.924Z,39.45
2018-07-20T12:25:22.959Z,38.40
2018-07-20T12:26:22.996Z,37.43
2018-07-20T12:27:22.986Z,37.13
2018-07-20T12:28:23.007Z,34.92
2018-07-20T12:29:23.040Z,36.19
2018-07-20T12:30:23.053Z,37.55
2018-07-20T12:31:23.107Z,35.72
2018-07-20T12:32:23.088Z,34.45
2018-07-20T12:33:23.107Z,35.92
2018-07-20T12:34:23.148Z,35.31
2018-07-20T12:35:23.155Z,36.58
2018-07-20T12:36:23.179Z,37.17
2018-07-20T12:37:23.206Z,36.39
2018-07-20T12:38:23.216Z,37.15
2018-07-20T12:39:23.235Z,38.40
2018-07-20T12:40:23.254Z,38.20
2018-07-20T12:41:23.274Z,38.79
2018-07-20T12:42:23.297Z,38.49
2018-07-20T12:43:23.337Z,39.37
2018-07-20T12:44:23.351Z,39.39
2018-07-20T12:45:23.357Z,37.65
2018-07-20T12:46:23.381Z,36.68
2018-07-20T12:47:23.401Z,38.63
2018-07-20T12:48:23.422Z,36.21
2018-07-20T12:49:23.440Z,35.80
2018-07-20T12:50:23.462Z,35.71
2018-07-20T12:51:23.485Z,35.90
2018-07-20T12:52:23.563Z,38.63
2018-07-20T12:53:23.526Z,37.75
2018-07-20T12:54:23.543Z,37.87
2018-07-20T12:55:23.577Z,35.72
2018-07-20T12:56:23.596Z,36.41
2018-07-20T12:57:23.606Z,36.41
2018-07-20T12:58:23.694Z,34.18
2018-07-20T12:59:23.653Z,34.45
2018-07-20T13:00:23.675Z,34.28
2018-07-20T13:02:23.718Z,34.28
2018-07-20T13:03:23.741Z,35.25
2018-07-20T13:04:23.768Z,34.18
2018-07-20T13:05:23.786Z,34.19